createdAt,value
2019-02-27T00:00:29.398Z,75.30
2019-02-27T00:03:06.084Z,75.30
2019-02-27T00:05:35.114Z,75.30
2019-02-27T00:08:04.043Z,76.40
2019-02-27T00:10:32.837Z,75.60
2019-02-27T00:13:02.067Z,75.90
2019-02-27T00:15:30.990Z,76.00
2019-02-27T00:17:59.814Z,75.90
2019-02-27T00:20:29.001Z,74.90
2019-02-27T00:23:00.804Z,74.90
2019-02-27T00:25:29.694Z,75.40
2019-02-27T00:27:58.817Z,76.00
2019-02-27T00:30:28.525Z,76.40
2019-02-27T00:33:03.757Z,76.80
2019-02-27T00:35:32.757Z,76.90
2019-02-27T00:38:01.582Z,76.80
2019-02-27T00:40:32.113Z,77.50
2019-02-27T00:43:01.038Z,77.30
2019-02-27T00:45:33.183Z,77.60
2019-02-27T00:48:05.412Z,78.30
2019-02-27T00:50:38.857Z,78.00
2019-02-27T00:53:05.154Z,78.00
2019-02-27T00:55:38.542Z,78.10
2019-02-27T00:58:04.809Z,78.20
2019-02-27T01:00:33.836Z,78.30
2019-02-27T01:03:05.922Z,78.30
2019-02-27T01:05:35.137Z,78.60
2019-02-27T01:08:04.055Z,78.60
2019-02-27T01:10:33.187Z,78.90
2019-02-27T01:13:02.074Z,79.10
2019-02-27T01:15:31.302Z,79.00
2019-02-27T01:18:20.304Z,78.90
2019-02-27T01:20:49.977Z,79.30
2019-02-27T01:23:20.623Z,80.10
2019-02-27T01:25:56.906Z,80.90
2019-02-27T01:28:23.904Z,81.60
2019-02-27T01:30:53.140Z,82.10
2019-02-27T01:33:22.616Z,82.20
2019-02-27T01:35:52.416Z,82.70
2019-02-27T01:38:21.660Z,82.80
2019-02-27T01:40:51.549Z,82.90
2019-02-27T01:43:21.252Z,83.70
2019-02-27T01:45:51.831Z,84.20
2019-02-27T01:48:22.472Z,85.20
2019-02-27T01:50:54.986Z,86.50
2019-02-27T01:53:23.371Z,86.80
2019-02-27T01:55:56.205Z,87.20
2019-02-27T01:58:26.091Z,88.10
2019-02-27T02:00:56.249Z,88.80
2019-02-27T02:03:25.610Z,88.60
2019-02-27T02:05:58.776Z,88.90
2019-02-27T02:08:25.514Z,89.30
2019-02-27T02:10:56.035Z,89.20
2019-02-27T02:13:30.950Z,88.90
2019-02-27T02:16:05.781Z,89.20
2019-02-27T02:18:48.758Z,89.10
2019-02-27T02:21:37.778Z,89.00
2019-02-27T02:24:29.059Z,88.70
2019-02-27T02:27:22.119Z,88.60
2019-02-27T02:29:56.549Z,88.50
2019-02-27T02:32:37.067Z,87.90
2019-02-27T02:35:26.762Z,87.80
2019-02-27T02:38:19.773Z,87.80
2019-02-27T02:41:00.414Z,87.80
2019-02-27T02:43:50.652Z,87.80
2019-02-27T02:46:45.333Z,87.80
2019-02-27T02:49:22.516Z,88.10
2019-02-27T02:52:04.537Z,88.30
2019-02-27T02:54:53.417Z,88.60
2019-02-27T02:57:36.350Z,89.20
2019-02-27T03:00:14.273Z,89.70
2019-02-27T03:02:51.897Z,90.00
2019-02-27T03:05:47.898Z,90.10
2019-02-27T03:08:28.722Z,90.30
2019-02-27T03:11:19.147Z,90.40
2019-02-27T03:14:03.126Z,90.60
2019-02-27T03:16:41.118Z,91.00
2019-02-27T03:19:14.316Z,91.00
2019-02-27T03:21:55.407Z,91.20
2019-02-27T03:24:33.499Z,91.20
2019-02-27T03:27:05.913Z,91.30
2019-02-27T03:30:02.170Z,91.30
2019-02-27T03:32:51.949Z,91.30
2019-02-27T03:35:49.563Z,91.40
2019-02-27T03:38:24.841Z,91.30
2019-02-27T03:41:08.757Z,91.30
2019-02-27T03:43:46.138Z,91.20
2019-02-27T03:46:29.261Z,91.10
2019-02-27T03:49:16.016Z,91.30
2019-02-27T03:52:00.498Z,91.30
2019-02-27T03:54:42.698Z,91.40
2019-02-27T03:57:27.056Z,91.30
2019-02-27T04:00:05.818Z,91.40
2019-02-27T04:02:46.413Z,91.60
2019-02-27T04:05:21.386Z,91.70
2019-02-27T04:08:15.841Z,91.60
2019-02-27T04:10:45.305Z,91.60
2019-02-27T04:13:17.276Z,91.60
2019-02-27T04:15:46.822Z,91.60
2019-02-27T04:18:14.640Z,91.60
2019-02-27T04:20:49.741Z,91.70
2019-02-27T04:23:14.697Z,91.70
2019-02-27T04:25:46.716Z,91.60
2019-02-27T04:28:15.827Z,91.60
2019-02-27T04:30:44.673Z,91.70
2019-02-27T04:33:13.907Z,91.60
2019-02-27T04:35:43.055Z,91.60
2019-02-27T04:38:12.134Z,91.60
2019-02-27T04:40:41.764Z,91.80
2019-02-27T04:43:11.617Z,91.80
2019-02-27T04:45:40.599Z,91.70
2019-02-27T04:48:09.758Z,91.70
2019-02-27T04:50:44.159Z,91.70
2019-02-27T04:53:13.015Z,91.70
2019-02-27T04:55:42.123Z,91.70
2019-02-27T04:58:11.347Z,91.70
2019-02-27T05:00:41.577Z,91.60
2019-02-27T05:03:10.439Z,91.60
2019-02-27T05:05:41.368Z,91.60
2019-02-27T05:08:10.022Z,91.60
2019-02-27T05:10:40.604Z,91.60
2019-02-27T05:13:10.052Z,91.70
2019-02-27T05:15:40.148Z,91.70
2019-02-27T05:18:10.427Z,91.80
2019-02-27T05:20:39.677Z,91.70
2019-02-27T05:23:08.738Z,91.80
2019-02-27T05:25:37.862Z,91.70
2019-02-27T05:28:07.576Z,91.80
2019-02-27T05:30:36.475Z,91.80
2019-02-27T05:33:05.476Z,91.70
2019-02-27T05:35:34.611Z,91.70
2019-02-27T05:38:03.457Z,91.70
2019-02-27T05:40:32.711Z,91.70
2019-02-27T05:43:02.072Z,91.70
2019-02-27T05:45:31.348Z,91.70
2019-02-27T05:48:00.836Z,91.70
2019-02-27T05:50:34.044Z,91.70
2019-02-27T05:53:00.595Z,91.70
2019-02-27T05:55:29.471Z,91.70
2019-02-27T05:57:58.651Z,91.70
2019-02-27T06:00:29.590Z,91.70
2019-02-27T06:03:00.390Z,91.70
2019-02-27T06:05:29.604Z,91.60
2019-02-27T06:08:02.062Z,91.60
2019-02-27T06:10:29.816Z,91.60
2019-02-27T06:12:58.639Z,91.50
2019-02-27T06:15:28.597Z,91.60
2019-02-27T06:17:58.804Z,91.50
2019-02-27T06:20:27.655Z,91.50
2019-02-27T06:22:56.668Z,91.60
2019-02-27T06:25:26.001Z,91.60
2019-02-27T06:27:54.974Z,91.50
2019-02-27T06:30:23.856Z,91.50
2019-02-27T06:32:53.441Z,91.60
2019-02-27T06:35:22.798Z,91.70
2019-02-27T06:37:51.937Z,91.60
2019-02-27T06:40:21.882Z,91.60
2019-02-27T06:42:53.423Z,91.60
2019-02-27T06:45:24.186Z,91.70
2019-02-27T06:47:53.380Z,91.70
2019-02-27T06:50:25.151Z,91.80
2019-02-27T06:52:52.922Z,91.90
2019-02-27T06:55:21.920Z,91.90
2019-02-27T06:57:50.747Z,91.90
2019-02-27T07:00:22.160Z,92.00
2019-02-27T07:02:55.189Z,92.00
2019-02-27T07:05:22.466Z,92.10
2019-02-27T07:07:51.425Z,92.20
2019-02-27T07:10:20.694Z,92.20
2019-02-27T07:12:54.383Z,92.40
2019-02-27T07:15:23.233Z,92.40
2019-02-27T07:17:52.556Z,92.40
2019-02-27T07:20:24.404Z,92.50
2019-02-27T07:22:52.083Z,92.50
2019-02-27T07:25:21.017Z,92.50
2019-02-27T07:27:49.940Z,92.60
2019-02-27T07:30:20.175Z,92.60
2019-02-27T07:32:49.408Z,92.60
2019-02-27T07:35:18.695Z,92.60
2019-02-27T07:37:49.577Z,92.70
2019-02-27T07:40:22.043Z,92.70
2019-02-27T07:42:51.779Z,92.70
2019-02-27T07:45:22.793Z,92.70
2019-02-27T07:47:52.165Z,92.80
2019-02-27T07:50:40.302Z,92.70
2019-02-27T07:53:09.692Z,92.70
2019-02-27T07:55:39.048Z,92.70
2019-02-27T07:58:08.087Z,92.80
2019-02-27T08:00:37.601Z,92.80
2019-02-27T08:03:09.229Z,92.70
2019-02-27T08:05:37.081Z,92.70
2019-02-27T08:08:07.511Z,92.70
2019-02-27T08:10:37.512Z,92.70
2019-02-27T08:13:06.521Z,92.60
2019-02-27T08:15:37.068Z,92.60
2019-02-27T08:18:06.335Z,92.60
2019-02-27T08:20:35.297Z,92.70
2019-02-27T08:23:06.820Z,92.70
2019-02-27T08:25:35.840Z,92.70
2019-02-27T08:28:04.994Z,92.70
2019-02-27T08:30:34.426Z,92.70
2019-02-27T08:33:08.139Z,92.70
2019-02-27T08:35:34.530Z,92.70
2019-02-27T08:38:04.604Z,92.70
2019-02-27T08:40:33.491Z,92.70
2019-02-27T08:43:03.217Z,92.70
2019-02-27T08:45:32.676Z,92.70
2019-02-27T08:48:04.690Z,92.70
2019-02-27T08:50:35.100Z,92.70
2019-02-27T08:53:04.297Z,92.80
2019-02-27T08:55:43.367Z,92.70
2019-02-27T08:58:12.790Z,92.70
2019-02-27T09:00:47.485Z,92.70
2019-02-27T09:03:20.343Z,92.70
2019-02-27T09:05:47.145Z,92.70
2019-02-27T09:08:16.726Z,92.70
2019-02-27T09:10:45.768Z,92.70
2019-02-27T09:13:17.509Z,92.60
2019-02-27T09:15:46.755Z,92.70
2019-02-27T09:18:15.890Z,92.70
2019-02-27T09:20:45.579Z,92.70
2019-02-27T09:23:15.083Z,92.60
2019-02-27T09:25:44.062Z,92.70
2019-02-27T09:28:13.581Z,92.70
2019-02-27T09:30:42.977Z,92.70
2019-02-27T09:33:12.160Z,92.70
2019-02-27T09:35:42.214Z,92.70
2019-02-27T09:38:11.482Z,92.60
2019-02-27T09:40:41.227Z,92.80
2019-02-27T09:43:11.617Z,92.50
2019-02-27T09:45:46.174Z,92.50
2019-02-27T09:48:11.952Z,92.60
2019-02-27T09:50:48.246Z,92.40
2019-02-27T09:53:20.251Z,92.40
2019-02-27T09:55:53.424Z,92.50
2019-02-27T09:58:22.545Z,92.30
2019-02-27T10:00:53.856Z,92.20
2019-02-27T10:03:22.730Z,92.00
2019-02-27T10:05:52.425Z,92.00
2019-02-27T10:08:25.341Z,92.30
2019-02-27T10:10:53.088Z,92.10
2019-02-27T10:13:22.462Z,92.10
2019-02-27T10:15:51.793Z,92.10
2019-02-27T10:18:22.087Z,92.10
2019-02-27T10:20:51.233Z,92.20
2019-02-27T10:23:21.134Z,92.20
2019-02-27T10:25:50.124Z,92.40
2019-02-27T10:28:19.439Z,92.50
2019-02-27T10:30:49.957Z,92.20
2019-02-27T10:33:19.813Z,91.70
2019-02-27T10:36:10.730Z,91.70
2019-02-27T10:38:40.452Z,91.70
2019-02-27T10:41:09.386Z,91.30
2019-02-27T10:43:38.573Z,91.60
2019-02-27T10:46:07.366Z,91.60
2019-02-27T10:48:42.805Z,91.80
2019-02-27T10:51:20.255Z,91.60
2019-02-27T10:53:51.285Z,91.20
2019-02-27T10:56:21.625Z,90.70
2019-02-27T10:58:52.751Z,91.10
2019-02-27T11:01:21.855Z,90.50
2019-02-27T11:03:50.916Z,90.00
2019-02-27T11:06:20.680Z,88.20
2019-02-27T11:08:49.709Z,88.20
2019-02-27T11:11:18.887Z,88.90
2019-02-27T11:13:51.669Z,89.10
2019-02-27T11:16:21.369Z,87.30
2019-02-27T11:18:51.343Z,86.80
2019-02-27T11:21:21.799Z,85.70
2019-02-27T11:23:51.082Z,84.90
2019-02-27T11:26:23.407Z,84.20
2019-02-27T11:28:51.647Z,82.60
2019-02-27T11:31:22.271Z,81.30
2019-02-27T11:33:51.503Z,80.00
2019-02-27T11:36:20.520Z,80.40
2019-02-27T11:38:50.023Z,79.70
2019-02-27T11:41:19.885Z,79.60
2019-02-27T11:43:52.714Z,79.70
2019-02-27T11:46:20.228Z,79.50
2019-02-27T11:48:49.673Z,80.20
2019-02-27T11:51:20.187Z,80.90
2019-02-27T11:53:50.028Z,82.00
2019-02-27T11:56:20.909Z,81.90
2019-02-27T11:58:51.581Z,83.70
2019-02-27T12:01:22.169Z,81.80
2019-02-27T12:03:51.948Z,78.50
2019-02-27T12:06:21.281Z,75.20
2019-02-27T12:08:51.123Z,76.90
2019-02-27T12:11:20.112Z,76.70
2019-02-27T12:13:54.853Z,75.20
2019-02-27T12:16:24.180Z,75.60
2019-02-27T12:18:53.353Z,74.60
2019-02-27T12:21:25.490Z,71.70
2019-02-27T12:23:55.199Z,70.60
2019-02-27T12:26:24.088Z,71.70
2019-02-27T12:28:52.944Z,72.20
2019-02-27T12:31:25.077Z,73.10
2019-02-27T12:33:54.205Z,71.40
2019-02-27T12:36:23.543Z,72.40
2019-02-27T12:38:52.462Z,70.00
2019-02-27T12:41:21.788Z,72.70
2019-02-27T12:43:52.740Z,72.00
2019-02-27T12:46:24.707Z,72.30
2019-02-27T12:48:57.226Z,70.00
2019-02-27T12:51:26.549Z,70.70
2019-02-27T12:53:55.494Z,69.70
2019-02-27T12:56:27.107Z,69.00
2019-02-27T12:58:58.709Z,71.10
2019-02-27T13:01:26.849Z,71.00
2019-02-27T13:03:56.867Z,69.50
2019-02-27T13:06:26.043Z,71.00
2019-02-27T13:08:55.914Z,68.20
2019-02-27T13:11:26.368Z,68.70
2019-02-27T13:13:57.243Z,68.80
2019-02-27T13:16:25.956Z,66.10
2019-02-27T13:18:55.161Z,68.40
2019-02-27T13:21:24.031Z,66.10
2019-02-27T13:23:53.124Z,66.60
2019-02-27T13:26:25.236Z,66.00
2019-02-27T13:28:54.227Z,65.30
2019-02-27T13:31:24.741Z,64.20
2019-02-27T13:33:54.179Z,67.80
2019-02-27T13:36:24.688Z,67.80
2019-02-27T13:38:53.602Z,66.60
2019-02-27T13:41:23.752Z,65.70
2019-02-27T13:43:52.796Z,64.70
2019-02-27T13:46:28.979Z,65.70
2019-02-27T13:49:06.111Z,64.30
2019-02-27T13:51:37.226Z,66.70
2019-02-27T13:54:07.372Z,67.60
2019-02-27T13:56:36.362Z,65.60
2019-02-27T13:59:07.456Z,65.00
2019-02-27T14:01:37.921Z,65.80
2019-02-27T14:04:06.850Z,63.70
2019-02-27T14:06:36.141Z,65.60
2019-02-27T14:09:07.723Z,63.60
2019-02-27T14:11:37.578Z,61.80
2019-02-27T14:14:06.364Z,62.20
2019-02-27T14:16:36.968Z,64.50
2019-02-27T14:19:06.169Z,64.50
2019-02-27T14:21:36.166Z,64.30
2019-02-27T14:24:05.252Z,63.90
2019-02-27T14:26:34.173Z,65.00
2019-02-27T14:29:04.183Z,62.90
2019-02-27T14:31:33.169Z,63.40
2019-02-27T14:34:03.941Z,64.00
2019-02-27T14:36:32.800Z,61.30
2019-02-27T14:39:01.762Z,61.40
2019-02-27T14:41:30.964Z,63.40
2019-02-27T14:44:00.009Z,61.50
2019-02-27T14:46:28.841Z,60.80
2019-02-27T14:48:58.002Z,60.40
2019-02-27T14:51:27.147Z,60.60
2019-02-27T14:53:56.149Z,61.70
2019-02-27T14:56:25.593Z,61.60
2019-02-27T14:58:57.597Z,63.20
2019-02-27T15:01:27.070Z,62.70
2019-02-27T15:03:55.972Z,62.60
2019-02-27T15:06:24.781Z,63.00
2019-02-27T15:08:58.078Z,61.60
2019-02-27T15:11:24.204Z,62.30
2019-02-27T15:13:52.985Z,62.80
2019-02-27T15:16:22.259Z,62.40
2019-02-27T15:18:54.780Z,61.50
2019-02-27T15:21:21.782Z,61.10
2019-02-27T15:23:53.518Z,62.30
2019-02-27T15:26:22.585Z,62.30
2019-02-27T15:28:51.583Z,61.90
2019-02-27T15:31:22.655Z,62.20
2019-02-27T15:33:54.170Z,63.90
2019-02-27T15:36:23.677Z,63.00
2019-02-27T15:38:55.226Z,61.70
2019-02-27T15:41:24.688Z,62.70
2019-02-27T15:44:00.158Z,62.80
2019-02-27T15:46:24.231Z,63.00
2019-02-27T15:48:53.351Z,63.80
2019-02-27T15:51:22.267Z,64.00
2019-02-27T15:53:52.823Z,64.50
2019-02-27T15:56:24.540Z,64.90
2019-02-27T15:58:53.306Z,65.50
2019-02-27T16:01:24.801Z,65.00
2019-02-27T16:03:53.013Z,64.50
2019-02-27T16:06:23.202Z,63.90
2019-02-27T16:08:58.242Z,64.50
2019-02-27T16:11:25.501Z,65.10
2019-02-27T16:13:55.339Z,65.70
2019-02-27T16:16:24.635Z,64.40
2019-02-27T16:18:53.577Z,64.30
2019-02-27T16:21:23.748Z,64.60
2019-02-27T16:23:56.224Z,65.10
2019-02-27T16:26:27.174Z,64.00
2019-02-27T16:28:56.008Z,63.10
2019-02-27T16:31:25.288Z,64.10
2019-02-27T16:33:55.489Z,64.50
2019-02-27T16:36:35.619Z,64.90
2019-02-27T16:38:55.714Z,63.70
2019-02-27T16:41:28.221Z,64.10
2019-02-27T16:43:55.253Z,64.40
2019-02-27T16:46:24.187Z,64.80
2019-02-27T16:48:53.100Z,64.90
2019-02-27T16:51:23.480Z,65.40
2019-02-27T16:53:55.201Z,65.80
2019-02-27T16:56:24.174Z,65.50
2019-02-27T16:58:53.078Z,66.30
2019-02-27T17:01:22.139Z,65.70
2019-02-27T17:03:59.582Z,66.10
2019-02-27T17:06:23.219Z,67.00
2019-02-27T17:08:54.986Z,67.10
2019-02-27T17:11:23.742Z,67.30
2019-02-27T17:13:57.622Z,66.60
2019-02-27T17:16:26.163Z,66.90
2019-02-27T17:18:54.939Z,67.40
2019-02-27T17:21:26.020Z,67.40
2019-02-27T17:23:55.215Z,67.50
2019-02-27T17:26:24.475Z,67.60
2019-02-27T17:28:53.461Z,67.40
2019-02-27T17:31:22.216Z,67.60
2019-02-27T17:33:53.022Z,68.00
2019-02-27T17:36:21.992Z,68.90
2019-02-27T17:38:51.701Z,68.90
2019-02-27T17:41:20.738Z,69.40
2019-02-27T17:43:51.545Z,69.10
2019-02-27T17:46:22.935Z,68.70
2019-02-27T17:48:53.599Z,68.60
2019-02-27T17:51:22.403Z,68.40
2019-02-27T17:53:55.146Z,68.90
2019-02-27T17:56:24.912Z,69.10
2019-02-27T17:58:53.821Z,68.60
2019-02-27T18:01:25.423Z,68.60
2019-02-27T18:03:56.246Z,68.80
2019-02-27T18:06:34.764Z,68.50
2019-02-27T18:09:03.352Z,68.80
2019-02-27T18:11:32.406Z,69.50
2019-02-27T18:14:01.708Z,70.00
2019-02-27T18:16:31.675Z,70.20
2019-02-27T18:19:00.757Z,70.20
2019-02-27T18:21:33.524Z,71.20
2019-02-27T18:24:01.326Z,70.90
2019-02-27T18:26:30.256Z,71.10
2019-02-27T18:29:00.004Z,71.70
2019-02-27T18:31:28.915Z,72.00
2019-02-27T18:33:59.745Z,71.40
2019-02-27T18:36:29.126Z,71.40
2019-02-27T18:39:02.526Z,72.10
2019-02-27T18:41:34.025Z,71.80
2019-02-27T18:44:07.878Z,72.30
2019-02-27T18:46:36.847Z,72.30
2019-02-27T18:49:05.745Z,72.00
2019-02-27T18:51:34.945Z,72.00
2019-02-27T18:54:04.002Z,71.80
2019-02-27T18:56:34.114Z,72.40
2019-02-27T18:59:03.710Z,72.10
2019-02-27T19:01:33.097Z,72.40
2019-02-27T19:04:03.235Z,73.10
2019-02-27T19:06:32.190Z,73.10
2019-02-27T19:09:01.213Z,73.20
2019-02-27T19:11:29.992Z,73.50
2019-02-27T19:14:02.412Z,73.30
2019-02-27T19:16:32.478Z,73.50
2019-02-27T19:19:01.483Z,73.30
2019-02-27T19:21:32.929Z,73.20
2019-02-27T19:24:01.092Z,73.40
2019-02-27T19:26:30.106Z,73.70
2019-02-27T19:29:00.745Z,74.20
2019-02-27T19:31:30.008Z,74.00
2019-02-27T19:33:59.043Z,74.20
2019-02-27T19:36:30.604Z,74.30
2019-02-27T19:38:59.163Z,73.70
2019-02-27T19:41:28.239Z,74.00
2019-02-27T19:43:57.240Z,73.20
2019-02-27T19:46:26.795Z,73.10
2019-02-27T19:48:55.858Z,73.20
2019-02-27T19:51:25.095Z,73.30
2019-02-27T19:53:54.040Z,73.90
2019-02-27T19:56:23.328Z,74.00
2019-02-27T19:58:52.365Z,73.90
2019-02-27T20:01:22.639Z,73.50
2019-02-27T20:03:54.418Z,73.40
2019-02-27T20:06:24.610Z,73.90
2019-02-27T20:08:53.923Z,72.90
2019-02-27T20:11:23.134Z,72.90
2019-02-27T20:13:53.945Z,73.10
2019-02-27T20:16:22.488Z,73.40
2019-02-27T20:18:55.137Z,73.30
2019-02-27T20:21:25.990Z,73.70
2019-02-27T20:24:00.990Z,73.40
2019-02-27T20:26:25.705Z,73.60
2019-02-27T20:28:54.524Z,73.10
2019-02-27T20:31:23.698Z,73.40
2019-02-27T20:33:52.589Z,74.10
2019-02-27T20:36:24.306Z,73.50
2019-02-27T20:38:53.150Z,73.40
2019-02-27T20:41:22.143Z,73.20
2019-02-27T20:43:54.255Z,72.90
2019-02-27T20:46:24.551Z,73.20
2019-02-27T20:48:53.880Z,73.20
2019-02-27T20:51:23.183Z,72.80
2019-02-27T20:53:52.565Z,72.50
2019-02-27T20:56:22.759Z,72.50
2019-02-27T20:58:52.125Z,73.10
2019-02-27T21:01:22.645Z,73.30
2019-02-27T21:03:54.569Z,73.50
2019-02-27T21:06:23.697Z,74.10
2019-02-27T21:08:52.588Z,73.30
2019-02-27T21:11:29.573Z,73.60
2019-02-27T21:13:55.404Z,74.00
2019-02-27T21:16:24.352Z,74.30
2019-02-27T21:18:53.681Z,74.70
2019-02-27T21:21:22.804Z,75.00
2019-02-27T21:23:55.143Z,74.80
2019-02-27T21:26:23.959Z,75.20
2019-02-27T21:28:58.530Z,74.90
2019-02-27T21:31:27.645Z,74.40
2019-02-27T21:33:54.794Z,74.40
2019-02-27T21:36:23.652Z,75.00
2019-02-27T21:38:52.708Z,75.70
2019-02-27T21:41:24.488Z,74.90
2019-02-27T21:43:56.557Z,74.80
2019-02-27T21:46:23.987Z,74.20
2019-02-27T21:48:53.006Z,75.20
2019-02-27T21:51:25.642Z,75.20
2019-02-27T21:53:54.390Z,74.90
2019-02-27T21:56:23.316Z,75.60
2019-02-27T21:58:52.713Z,76.00
2019-02-27T22:04:50.159Z,75.30
2019-02-27T22:07:19.472Z,76.10
2019-02-27T22:09:50.101Z,76.20
2019-02-27T22:12:19.461Z,75.60
2019-02-27T22:14:48.677Z,74.90
2019-02-27T22:17:18.370Z,75.80
2019-02-27T22:19:50.438Z,76.00
2019-02-27T22:22:19.981Z,76.30
2019-02-27T22:24:52.234Z,76.50
2019-02-27T22:27:22.445Z,76.90
2019-02-27T22:29:51.564Z,77.10
2019-02-27T22:32:23.833Z,77.10
2019-02-27T22:34:52.728Z,76.50
2019-02-27T22:37:23.155Z,76.70
2019-02-27T22:39:53.179Z,76.40
2019-02-27T22:42:22.270Z,76.50
2019-02-27T22:44:51.308Z,76.30
2019-02-27T22:47:21.501Z,76.80
2019-02-27T22:49:51.917Z,77.10
2019-02-27T22:52:21.022Z,76.80
2019-02-27T22:54:52.643Z,76.90
2019-02-27T22:57:24.461Z,76.90
2019-02-27T22:59:53.477Z,76.70
2019-02-27T23:02:24.242Z,76.40
2019-02-27T23:04:53.185Z,77.00
2019-02-27T23:07:22.207Z,77.90
2019-02-27T23:09:52.687Z,77.80
2019-02-27T23:12:21.817Z,77.80
2019-02-27T23:14:53.797Z,77.40
2019-02-27T23:17:22.664Z,77.50
2019-02-27T23:19:54.740Z,78.00
2019-02-27T23:22:23.602Z,77.80
2019-02-27T23:24:52.670Z,77.40
2019-02-27T23:27:26.026Z,77.60
2019-02-27T23:29:54.840Z,77.50
2019-02-27T23:32:28.436Z,78.60
2019-02-27T23:34:55.624Z,77.20
2019-02-27T23:37:29.271Z,77.20
2019-02-27T23:39:55.612Z,77.10
2019-02-27T23:42:27.874Z,77.50
2019-02-27T23:44:57.681Z,77.30
2019-02-27T23:47:28.711Z,77.20
2019-02-27T23:49:58.587Z,76.50
2019-02-27T23:52:27.616Z,76.90
2019-02-27T23:54:56.624Z,76.60
2019-02-27T23:57:25.608Z,76.80
2019-02-27T23:59:56.535Z,76.50
